Acosta, PA (15520)

9:48 AM EDT on September 18, 2014 (GMT -0400)
Out in the country | Change Station
CLOSE
Current Station
Personal Weather Station
Location: Somerset, PA
Elevation: 2200 ft
Nearby Weather Stations

Elev 2200 ft 40.07 °N, 79.17 °W | Updated 7 seconds ago

Partly Cloudy
Partly Cloudy
55.1 °F
Feels Like 55.1 °F
N
0.0
Wind Variable Wind from NW
Gusts 0.0 mph

Today
High -- | Low -- °F
--% Chance of Precip.
Yesterday
High -- | Low -- °F
Precip. -- in
7:00 AM 7:20 PM
Waning Crescent, 27% visible
Pressure 30.05 in
Visibility 10.0 miles
Clouds Few 4700 ft
Dew Point 52 °F
Humidity 88%
Rainfall 0.00 in
Snow Depth Not available.
UV 1 out of 12
Pollen 3.60 out of 12
Ozone Good
PM2.5 Moderate
Flu Activity Not available.
METAR KJST 181254Z AUTO 03003KT 10SM FEW047 13/08 A3005 RMK AO2 SLP176 T01280078

More Conditions Fewer Conditions

Pressure 30.05 in
Visibility 10.0 miles
Clouds Few 4700 ft
Dew Point 52 °F
Humidity 88%
Rainfall 0.00 in
Snow Depth Not available.
UV 1 out of 12
Pollen 3.60 out of 12
Ozone Good
PM2.5 Moderate
Flu Activity Not available.
METAR KJST 181254Z AUTO 03003KT 10SM FEW047 13/08 A3005 RMK AO2 SLP176 T01280078

More Conditions Fewer Conditions

10-Day Weather Forecast

Almanac

Astronomy

Sep. 18, 2014 Rise Set
Actual Time 7:00 AM EDT 7:20 PM EDT
Civil Twilight 6:32 AM EDT 7:47 PM EDT
Nautical Twilight 6:00 AM EDT 8:18 PM EDT
Astronomical Twilight 5:28 AM EDT 8:51 PM EDT
Moon 1:50 AM EDT 4:10 PM EDT
Length of Visible Light 13h 14m
Length of Day
12h 20m
Tomorrow will be 2m 37s shorter.
Waning Crescent, 27% of the Moon is Illuminated
Today
Waning Crescent
Sep 24
New
Oct 1
First Quarter
Oct 8
Full
Oct 15
Last Quarter

Today's Extremes

State Highs State Lows

Community

WunderPhotos

Upload Photos

1,754,347 photos uploaded!

Nearby

Air Quality

  Air Quality AQ Index Pollutant
Yesterday Moderate
PM2.5
Yesterday Good
OZONE
Current Moderate
PM2.5
Current Good
OZONE
Thursday Good
PM2.5
Friday Moderate
PM2.5

Snow Depth

Station Depth Elevation
No new snow has been reported.

Earthquake Activity

City Distance Mag. Time & Date
No recent earthquake activity has been reported nearby.
Minimum magnitude displayed is 2.5.

Coastal Water Temperatures

Place Temperature
No Stations Reporting

Nearby Weather Stations